sensor_id;sensor_type;location;lat;lon;timestamp;P1;durP1;ratioP1;P2;durP2;ratioP2
67162;SDS011;54092;53.088;8.850;2023-07-28T00:02:01;7.68;;;4.90;;
67162;SDS011;54092;53.088;8.850;2023-07-28T00:04:27;7.30;;;4.15;;
67162;SDS011;54092;53.088;8.850;2023-07-28T00:06:52;7.53;;;4.10;;
67162;SDS011;54092;53.088;8.850;2023-07-28T00:09:18;8.40;;;3.95;;
67162;SDS011;54092;53.088;8.850;2023-07-28T00:11:43;8.60;;;4.18;;
67162;SDS011;54092;53.088;8.850;2023-07-28T00:14:09;7.80;;;4.20;;
67162;SDS011;54092;53.088;8.850;2023-07-28T00:16:34;8.40;;;4.10;;
67162;SDS011;54092;53.088;8.850;2023-07-28T00:19:00;7.35;;;4.07;;
67162;SDS011;54092;53.088;8.850;2023-07-28T00:21:26;5.88;;;3.50;;
67162;SDS011;54092;53.088;8.850;2023-07-28T00:23:51;6.45;;;3.60;;
67162;SDS011;54092;53.088;8.850;2023-07-28T00:26:17;8.77;;;3.67;;
67162;SDS011;54092;53.088;8.850;2023-07-28T00:28:43;7.38;;;3.90;;
67162;SDS011;54092;53.088;8.850;2023-07-28T00:31:08;8.95;;;4.20;;
67162;SDS011;54092;53.088;8.850;2023-07-28T00:33:34;7.40;;;4.15;;
67162;SDS011;54092;53.088;8.850;2023-07-28T00:35:59;9.00;;;4.47;;
67162;SDS011;54092;53.088;8.850;2023-07-28T00:38:25;7.95;;;4.40;;
67162;SDS011;54092;53.088;8.850;2023-07-28T00:40:50;8.98;;;4.50;;
67162;SDS011;54092;53.088;8.850;2023-07-28T00:43:16;9.50;;;4.45;;
67162;SDS011;54092;53.088;8.850;2023-07-28T00:45:41;8.63;;;4.43;;
67162;SDS011;54092;53.088;8.850;2023-07-28T00:48:10;8.32;;;4.22;;
67162;SDS011;54092;53.088;8.850;2023-07-28T00:50:38;7.60;;;4.07;;
67162;SDS011;54092;53.088;8.850;2023-07-28T00:53:07;9.07;;;4.20;;
67162;SDS011;54092;53.088;8.850;2023-07-28T00:55:33;7.30;;;4.00;;
67162;SDS011;54092;53.088;8.850;2023-07-28T00:57:59;8.50;;;4.68;;
67162;SDS011;54092;53.088;8.850;2023-07-28T01:00:25;7.22;;;3.83;;
67162;SDS011;54092;53.088;8.850;2023-07-28T01:02:50;9.88;;;4.20;;
67162;SDS011;54092;53.088;8.850;2023-07-28T01:05:16;7.70;;;4.00;;
67162;SDS011;54092;53.088;8.850;2023-07-28T01:10:26;10.18;;;4.50;;
67162;SDS011;54092;53.088;8.850;2023-07-28T01:12:59;9.75;;;4.05;;
67162;SDS011;54092;53.088;8.850;2023-07-28T01:15:24;9.93;;;4.40;;
67162;SDS011;54092;53.088;8.850;2023-07-28T01:17:50;9.77;;;4.93;;
67162;SDS011;54092;53.088;8.850;2023-07-28T01:20:16;12.25;;;5.13;;
67162;SDS011;54092;53.088;8.850;2023-07-28T01:22:47;10.15;;;5.15;;
67162;SDS011;54092;53.088;8.850;2023-07-28T01:25:16;12.60;;;5.00;;
67162;SDS011;54092;53.088;8.850;2023-07-28T01:27:48;13.82;;;6.03;;
67162;SDS011;54092;53.088;8.850;2023-07-28T01:30:16;15.27;;;6.27;;
67162;SDS011;54092;53.088;8.850;2023-07-28T01:32:42;14.65;;;6.32;;
67162;SDS011;54092;53.088;8.850;2023-07-28T01:35:08;11.82;;;6.13;;
67162;SDS011;54092;53.088;8.850;2023-07-28T01:37:34;13.40;;;6.28;;
67162;SDS011;54092;53.088;8.850;2023-07-28T01:39:59;13.70;;;6.00;;
67162;SDS011;54092;53.088;8.850;2023-07-28T01:42:25;12.70;;;6.25;;
67162;SDS011;54092;53.088;8.850;2023-07-28T01:44:50;12.50;;;6.40;;
67162;SDS011;54092;53.088;8.850;2023-07-28T01:47:16;12.50;;;6.05;;
67162;SDS011;54092;53.088;8.850;2023-07-28T01:49:41;11.88;;;5.95;;
67162;SDS011;54092;53.088;8.850;2023-07-28T01:52:07;13.63;;;6.20;;
67162;SDS011;54092;53.088;8.850;2023-07-28T01:54:32;13.90;;;6.38;;
67162;SDS011;54092;53.088;8.850;2023-07-28T01:56:58;16.27;;;6.88;;
67162;SDS011;54092;53.088;8.850;2023-07-28T01:59:24;14.20;;;6.75;;
67162;SDS011;54092;53.088;8.850;2023-07-28T02:01:49;13.20;;;6.53;;
67162;SDS011;54092;53.088;8.850;2023-07-28T02:04:15;15.13;;;6.47;;
67162;SDS011;54092;53.088;8.850;2023-07-28T02:06:41;15.60;;;6.70;;
67162;SDS011;54092;53.088;8.850;2023-07-28T02:09:06;16.45;;;7.43;;
67162;SDS011;54092;53.088;8.850;2023-07-28T02:11:32;15.05;;;7.15;;
67162;SDS011;54092;53.088;8.850;2023-07-28T02:13:58;13.02;;;6.53;;
67162;SDS011;54092;53.088;8.850;2023-07-28T02:16:23;15.80;;;6.65;;
67162;SDS011;54092;53.088;8.850;2023-07-28T02:18:49;14.73;;;6.95;;
67162;SDS011;54092;53.088;8.850;2023-07-28T02:21:14;13.93;;;6.40;;
67162;SDS011;54092;53.088;8.850;2023-07-28T02:23:40;13.43;;;6.40;;
67162;SDS011;54092;53.088;8.850;2023-07-28T02:26:06;15.68;;;6.38;;
67162;SDS011;54092;53.088;8.850;2023-07-28T02:28:31;15.90;;;7.43;;
67162;SDS011;54092;53.088;8.850;2023-07-28T02:30:57;17.42;;;7.15;;
67162;SDS011;54092;53.088;8.850;2023-07-28T02:33:23;15.05;;;7.15;;
67162;SDS011;54092;53.088;8.850;2023-07-28T02:35:48;17.55;;;8.00;;
67162;SDS011;54092;53.088;8.850;2023-07-28T02:38:14;22.40;;;8.40;;
67162;SDS011;54092;53.088;8.850;2023-07-28T02:40:39;19.67;;;8.55;;
67162;SDS011;54092;53.088;8.850;2023-07-28T02:43:05;21.45;;;8.02;;
67162;SDS011;54092;53.088;8.850;2023-07-28T02:45:30;20.58;;;8.20;;
67162;SDS011;54092;53.088;8.850;2023-07-28T02:47:56;22.73;;;9.13;;
67162;SDS011;54092;53.088;8.850;2023-07-28T02:50:21;21.88;;;9.00;;
67162;SDS011;54092;53.088;8.850;2023-07-28T02:52:48;24.65;;;9.38;;
67162;SDS011;54092;53.088;8.850;2023-07-28T02:55:13;24.75;;;8.38;;
67162;SDS011;54092;53.088;8.850;2023-07-28T02:57:39;20.10;;;8.38;;
67162;SDS011;54092;53.088;8.850;2023-07-28T03:00:05;22.00;;;7.72;;
67162;SDS011;54092;53.088;8.850;2023-07-28T03:02:32;18.58;;;8.30;;
67162;SDS011;54092;53.088;8.850;2023-07-28T03:04:58;15.35;;;7.05;;
67162;SDS011;54092;53.088;8.850;2023-07-28T03:07:23;15.38;;;6.88;;
67162;SDS011;54092;53.088;8.850;2023-07-28T03:09:49;14.40;;;6.90;;
67162;SDS011;54092;53.088;8.850;2023-07-28T03:12:14;17.65;;;7.03;;
67162;SDS011;54092;53.088;8.850;2023-07-28T03:14:40;14.60;;;7.03;;
67162;SDS011;54092;53.088;8.850;2023-07-28T03:17:05;14.70;;;6.78;;
67162;SDS011;54092;53.088;8.850;2023-07-28T03:19:31;14.93;;;6.65;;
67162;SDS011;54092;53.088;8.850;2023-07-28T03:21:56;15.07;;;6.93;;
67162;SDS011;54092;53.088;8.850;2023-07-28T03:24:22;13.18;;;6.18;;
67162;SDS011;54092;53.088;8.850;2023-07-28T03:26:47;20.15;;;7.28;;
67162;SDS011;54092;53.088;8.850;2023-07-28T03:29:13;16.80;;;7.72;;
67162;SDS011;54092;53.088;8.850;2023-07-28T03:31:39;17.05;;;6.82;;
67162;SDS011;54092;53.088;8.850;2023-07-28T03:34:04;16.80;;;7.10;;
67162;SDS011;54092;53.088;8.850;2023-07-28T03:36:30;18.80;;;7.28;;
67162;SDS011;54092;53.088;8.850;2023-07-28T03:38:55;16.52;;;6.63;;
67162;SDS011;54092;53.088;8.850;2023-07-28T03:41:21;16.30;;;5.93;;
67162;SDS011;54092;53.088;8.850;2023-07-28T03:43:46;11.30;;;5.13;;
67162;SDS011;54092;53.088;8.850;2023-07-28T03:46:12;11.52;;;5.32;;
67162;SDS011;54092;53.088;8.850;2023-07-28T03:48:37;12.07;;;5.20;;
67162;SDS011;54092;53.088;8.850;2023-07-28T03:51:03;13.15;;;5.80;;
67162;SDS011;54092;53.088;8.850;2023-07-28T03:53:29;10.13;;;4.40;;
67162;SDS011;54092;53.088;8.850;2023-07-28T03:55:54;10.93;;;4.45;;
67162;SDS011;54092;53.088;8.850;2023-07-28T03:58:23;10.82;;;4.70;;
67162;SDS011;54092;53.088;8.850;2023-07-28T04:00:50;7.43;;;3.80;;
67162;SDS011;54092;53.088;8.850;2023-07-28T04:03:16;8.07;;;4.15;;
67162;SDS011;54092;53.088;8.850;2023-07-28T04:05:42;11.13;;;4.40;;
67162;SDS011;54092;53.088;8.850;2023-07-28T04:08:07;8.95;;;4.15;;
67162;SDS011;54092;53.088;8.850;2023-07-28T04:10:33;6.53;;;3.30;;
67162;SDS011;54092;53.088;8.850;2023-07-28T04:12:58;7.45;;;3.47;;
67162;SDS011;54092;53.088;8.850;2023-07-28T04:15:24;6.95;;;3.33;;
67162;SDS011;54092;53.088;8.850;2023-07-28T04:17:49;7.60;;;3.50;;
67162;SDS011;54092;53.088;8.850;2023-07-28T04:20:15;7.20;;;3.70;;
67162;SDS011;54092;53.088;8.850;2023-07-28T04:22:40;8.68;;;3.60;;
67162;SDS011;54092;53.088;8.850;2023-07-28T04:25:06;9.68;;;4.30;;
67162;SDS011;54092;53.088;8.850;2023-07-28T04:27:32;15.73;;;6.63;;
67162;SDS011;54092;53.088;8.850;2023-07-28T04:29:57;11.20;;;5.63;;
67162;SDS011;54092;53.088;8.850;2023-07-28T04:32:23;13.85;;;6.15;;
67162;SDS011;54092;53.088;8.850;2023-07-28T04:34:49;16.00;;;7.20;;
67162;SDS011;54092;53.088;8.850;2023-07-28T04:37:15;14.02;;;7.07;;
67162;SDS011;54092;53.088;8.850;2023-07-28T04:39:41;16.48;;;7.72;;
67162;SDS011;54092;53.088;8.850;2023-07-28T04:42:06;20.95;;;7.15;;
67162;SDS011;54092;53.088;8.850;2023-07-28T04:44:32;16.42;;;7.18;;
67162;SDS011;54092;53.088;8.850;2023-07-28T04:46:57;21.20;;;8.02;;
67162;SDS011;54092;53.088;8.850;2023-07-28T04:49:23;19.88;;;8.77;;
67162;SDS011;54092;53.088;8.850;2023-07-28T04:51:48;17.80;;;7.93;;
67162;SDS011;54092;53.088;8.850;2023-07-28T04:54:14;24.38;;;8.38;;
67162;SDS011;54092;53.088;8.850;2023-07-28T04:56:39;22.63;;;8.38;;
67162;SDS011;54092;53.088;8.850;2023-07-28T04:59:05;20.58;;;8.23;;
67162;SDS011;54092;53.088;8.850;2023-07-28T05:01:32;22.17;;;7.95;;
67162;SDS011;54092;53.088;8.850;2023-07-28T05:03:58;20.80;;;8.50;;
67162;SDS011;54092;53.088;8.850;2023-07-28T05:06:23;21.90;;;7.78;;
67162;SDS011;54092;53.088;8.850;2023-07-28T05:08:49;18.35;;;6.90;;
67162;SDS011;54092;53.088;8.850;2023-07-28T05:11:14;20.85;;;7.93;;
67162;SDS011;54092;53.088;8.850;2023-07-28T05:13:40;19.85;;;7.25;;
67162;SDS011;54092;53.088;8.850;2023-07-28T05:16:05;22.70;;;7.80;;
67162;SDS011;54092;53.088;8.850;2023-07-28T05:18:31;21.15;;;8.18;;
67162;SDS011;54092;53.088;8.850;2023-07-28T05:20:56;19.35;;;7.32;;
67162;SDS011;54092;53.088;8.850;2023-07-28T05:23:22;18.55;;;7.40;;
67162;SDS011;54092;53.088;8.850;2023-07-28T05:25:48;18.73;;;6.88;;
67162;SDS011;54092;53.088;8.850;2023-07-28T05:28:13;18.95;;;7.47;;
67162;SDS011;54092;53.088;8.850;2023-07-28T05:30:39;15.82;;;6.80;;
67162;SDS011;54092;53.088;8.850;2023-07-28T05:33:04;17.77;;;7.15;;
67162;SDS011;54092;53.088;8.850;2023-07-28T05:35:30;15.93;;;7.03;;
67162;SDS011;54092;53.088;8.850;2023-07-28T05:37:55;18.25;;;6.85;;
67162;SDS011;54092;53.088;8.850;2023-07-28T05:40:21;17.92;;;6.63;;
67162;SDS011;54092;53.088;8.850;2023-07-28T05:42:46;17.52;;;7.30;;
67162;SDS011;54092;53.088;8.850;2023-07-28T05:45:12;15.32;;;6.72;;
67162;SDS011;54092;53.088;8.850;2023-07-28T05:47:37;16.60;;;6.68;;
67162;SDS011;54092;53.088;8.850;2023-07-28T05:50:03;14.23;;;6.25;;
67162;SDS011;54092;53.088;8.850;2023-07-28T05:52:30;17.38;;;7.15;;
67162;SDS011;54092;53.088;8.850;2023-07-28T05:54:56;15.88;;;6.50;;
67162;SDS011;54092;53.088;8.850;2023-07-28T05:57:21;14.50;;;6.43;;
67162;SDS011;54092;53.088;8.850;2023-07-28T05:59:47;15.35;;;5.80;;
67162;SDS011;54092;53.088;8.850;2023-07-28T06:02:12;16.23;;;6.50;;
67162;SDS011;54092;53.088;8.850;2023-07-28T06:04:38;16.67;;;6.00;;
67162;SDS011;54092;53.088;8.850;2023-07-28T06:07:03;17.90;;;7.03;;
67162;SDS011;54092;53.088;8.850;2023-07-28T06:09:29;20.10;;;7.97;;
67162;SDS011;54092;53.088;8.850;2023-07-28T06:11:55;19.92;;;8.90;;
67162;SDS011;54092;53.088;8.850;2023-07-28T06:14:20;21.83;;;9.55;;
67162;SDS011;54092;53.088;8.850;2023-07-28T06:16:46;25.38;;;10.52;;
67162;SDS011;54092;53.088;8.850;2023-07-28T06:19:11;27.35;;;10.70;;
67162;SDS011;54092;53.088;8.850;2023-07-28T06:21:37;30.42;;;12.95;;
67162;SDS011;54092;53.088;8.850;2023-07-28T06:24:02;32.40;;;12.88;;
67162;SDS011;54092;53.088;8.850;2023-07-28T06:26:28;38.75;;;13.50;;
67162;SDS011;54092;53.088;8.850;2023-07-28T06:28:53;33.70;;;13.80;;
67162;SDS011;54092;53.088;8.850;2023-07-28T06:31:19;39.70;;;14.13;;
67162;SDS011;54092;53.088;8.850;2023-07-28T06:33:46;32.88;;;14.13;;
67162;SDS011;54092;53.088;8.850;2023-07-28T06:36:12;36.63;;;14.43;;
67162;SDS011;54092;53.088;8.850;2023-07-28T06:38:37;37.28;;;15.38;;
67162;SDS011;54092;53.088;8.850;2023-07-28T06:41:04;32.83;;;15.38;;
67162;SDS011;54092;53.088;8.850;2023-07-28T06:43:30;35.00;;;14.93;;
67162;SDS011;54092;53.088;8.850;2023-07-28T06:45:55;34.40;;;14.60;;
67162;SDS011;54092;53.088;8.850;2023-07-28T06:48:21;35.25;;;15.02;;
67162;SDS011;54092;53.088;8.850;2023-07-28T06:50:46;37.33;;;15.93;;
67162;SDS011;54092;53.088;8.850;2023-07-28T06:53:12;41.33;;;15.38;;
67162;SDS011;54092;53.088;8.850;2023-07-28T06:55:37;33.75;;;14.55;;
67162;SDS011;54092;53.088;8.850;2023-07-28T06:58:04;36.75;;;16.33;;
67162;SDS011;54092;53.088;8.850;2023-07-28T07:00:30;35.63;;;16.10;;
67162;SDS011;54092;53.088;8.850;2023-07-28T07:02:56;34.45;;;15.80;;
67162;SDS011;54092;53.088;8.850;2023-07-28T07:05:21;29.45;;;14.90;;
67162;SDS011;54092;53.088;8.850;2023-07-28T07:07:48;32.30;;;15.50;;
67162;SDS011;54092;53.088;8.850;2023-07-28T07:10:14;38.40;;;15.85;;
67162;SDS011;54092;53.088;8.850;2023-07-28T07:12:39;33.65;;;16.00;;
67162;SDS011;54092;53.088;8.850;2023-07-28T07:15:05;34.67;;;15.95;;
67162;SDS011;54092;53.088;8.850;2023-07-28T07:17:32;34.00;;;15.15;;
67162;SDS011;54092;53.088;8.850;2023-07-28T07:19:57;34.70;;;15.90;;
67162;SDS011;54092;53.088;8.850;2023-07-28T07:22:23;36.50;;;15.63;;
67162;SDS011;54092;53.088;8.850;2023-07-28T07:24:49;37.42;;;16.85;;
67162;SDS011;54092;53.088;8.850;2023-07-28T07:27:14;35.10;;;16.23;;
67162;SDS011;54092;53.088;8.850;2023-07-28T07:29:40;35.60;;;17.00;;
67162;SDS011;54092;53.088;8.850;2023-07-28T07:32:06;34.80;;;16.20;;
67162;SDS011;54092;53.088;8.850;2023-07-28T07:34:33;43.30;;;16.88;;
67162;SDS011;54092;53.088;8.850;2023-07-28T07:36:59;35.40;;;16.17;;
67162;SDS011;54092;53.088;8.850;2023-07-28T07:39:25;38.83;;;17.13;;
67162;SDS011;54092;53.088;8.850;2023-07-28T07:41:50;41.17;;;17.67;;
67162;SDS011;54092;53.088;8.850;2023-07-28T07:44:16;34.80;;;16.65;;
67162;SDS011;54092;53.088;8.850;2023-07-28T07:46:41;36.40;;;16.10;;
67162;SDS011;54092;53.088;8.850;2023-07-28T07:49:07;36.47;;;16.75;;
67162;SDS011;54092;53.088;8.850;2023-07-28T07:51:32;42.50;;;18.25;;
67162;SDS011;54092;53.088;8.850;2023-07-28T07:53:59;44.53;;;17.92;;
67162;SDS011;54092;53.088;8.850;2023-07-28T07:56:26;44.58;;;17.42;;
67162;SDS011;54092;53.088;8.850;2023-07-28T07:58:52;40.13;;;19.08;;
67162;SDS011;54092;53.088;8.850;2023-07-28T08:01:18;44.08;;;18.38;;
67162;SDS011;54092;53.088;8.850;2023-07-28T08:03:43;44.05;;;19.02;;
67162;SDS011;54092;53.088;8.850;2023-07-28T08:06:09;41.95;;;18.80;;
67162;SDS011;54092;53.088;8.850;2023-07-28T08:08:36;47.60;;;20.70;;
67162;SDS011;54092;53.088;8.850;2023-07-28T08:11:02;40.40;;;19.50;;
67162;SDS011;54092;53.088;8.850;2023-07-28T08:13:27;37.72;;;18.90;;
67162;SDS011;54092;53.088;8.850;2023-07-28T08:15:53;39.53;;;17.45;;
67162;SDS011;54092;53.088;8.850;2023-07-28T08:18:19;32.30;;;16.15;;
67162;SDS011;54092;53.088;8.850;2023-07-28T08:20:45;36.90;;;17.38;;
67162;SDS011;54092;53.088;8.850;2023-07-28T08:23:10;33.33;;;16.15;;
67162;SDS011;54092;53.088;8.850;2023-07-28T08:25:36;36.40;;;16.65;;
67162;SDS011;54092;53.088;8.850;2023-07-28T08:28:02;29.73;;;16.35;;
67162;SDS011;54092;53.088;8.850;2023-07-28T08:30:27;30.85;;;15.55;;
67162;SDS011;54092;53.088;8.850;2023-07-28T08:32:53;30.95;;;15.50;;
67162;SDS011;54092;53.088;8.850;2023-07-28T08:35:18;31.17;;;14.60;;
67162;SDS011;54092;53.088;8.850;2023-07-28T08:37:44;33.80;;;14.77;;
67162;SDS011;54092;53.088;8.850;2023-07-28T08:40:10;30.88;;;14.25;;
67162;SDS011;54092;53.088;8.850;2023-07-28T08:42:37;31.85;;;13.77;;
67162;SDS011;54092;53.088;8.850;2023-07-28T08:45:04;27.20;;;13.52;;
67162;SDS011;54092;53.088;8.850;2023-07-28T08:47:33;29.17;;;13.90;;
67162;SDS011;54092;53.088;8.850;2023-07-28T08:50:01;28.75;;;13.48;;
67162;SDS011;54092;53.088;8.850;2023-07-28T08:52:27;29.98;;;14.10;;
67162;SDS011;54092;53.088;8.850;2023-07-28T08:54:52;27.13;;;13.50;;
67162;SDS011;54092;53.088;8.850;2023-07-28T08:57:18;27.42;;;13.95;;
67162;SDS011;54092;53.088;8.850;2023-07-28T08:59:44;25.08;;;13.40;;
67162;SDS011;54092;53.088;8.850;2023-07-28T09:02:13;28.70;;;13.05;;
67162;SDS011;54092;53.088;8.850;2023-07-28T09:04:41;22.95;;;11.98;;
67162;SDS011;54092;53.088;8.850;2023-07-28T09:07:07;24.30;;;12.20;;
67162;SDS011;54092;53.088;8.850;2023-07-28T09:09:33;28.02;;;14.25;;
67162;SDS011;54092;53.088;8.850;2023-07-28T09:11:59;26.13;;;12.57;;
67162;SDS011;54092;53.088;8.850;2023-07-28T09:14:25;28.48;;;12.45;;
67162;SDS011;54092;53.088;8.850;2023-07-28T09:16:51;26.17;;;13.23;;
67162;SDS011;54092;53.088;8.850;2023-07-28T09:19:19;23.88;;;13.02;;
67162;SDS011;54092;53.088;8.850;2023-07-28T09:21:45;31.17;;;14.40;;
67162;SDS011;54092;53.088;8.850;2023-07-28T09:24:28;32.35;;;14.05;;
67162;SDS011;54092;53.088;8.850;2023-07-28T09:26:57;24.58;;;13.38;;
67162;SDS011;54092;53.088;8.850;2023-07-28T09:29:23;25.90;;;13.23;;
67162;SDS011;54092;53.088;8.850;2023-07-28T09:31:51;28.88;;;14.45;;
67162;SDS011;54092;53.088;8.850;2023-07-28T09:34:23;29.77;;;14.07;;
67162;SDS011;54092;53.088;8.850;2023-07-28T09:36:52;28.08;;;13.85;;
67162;SDS011;54092;53.088;8.850;2023-07-28T09:39:24;27.45;;;13.80;;
67162;SDS011;54092;53.088;8.850;2023-07-28T09:41:51;23.45;;;12.75;;
67162;SDS011;54092;53.088;8.850;2023-07-28T09:44:17;21.42;;;11.90;;
67162;SDS011;54092;53.088;8.850;2023-07-28T09:46:53;20.65;;;11.35;;
67162;SDS011;54092;53.088;8.850;2023-07-28T09:49:41;23.30;;;11.07;;
67162;SDS011;54092;53.088;8.850;2023-07-28T09:52:10;19.90;;;10.27;;
67162;SDS011;54092;53.088;8.850;2023-07-28T09:54:38;13.93;;;9.02;;
67162;SDS011;54092;53.088;8.850;2023-07-28T09:57:04;15.73;;;9.02;;
67162;SDS011;54092;53.088;8.850;2023-07-28T09:59:38;19.42;;;8.88;;
67162;SDS011;54092;53.088;8.850;2023-07-28T10:02:06;15.98;;;9.07;;
67162;SDS011;54092;53.088;8.850;2023-07-28T10:04:32;15.25;;;8.30;;
67162;SDS011;54092;53.088;8.850;2023-07-28T10:06:58;13.15;;;7.72;;
67162;SDS011;54092;53.088;8.850;2023-07-28T10:09:26;11.77;;;6.93;;
67162;SDS011;54092;53.088;8.850;2023-07-28T10:11:52;13.88;;;7.93;;
67162;SDS011;54092;53.088;8.850;2023-07-28T10:14:28;16.05;;;6.97;;
67162;SDS011;54092;53.088;8.850;2023-07-28T10:16:56;15.65;;;7.85;;
67162;SDS011;54092;53.088;8.850;2023-07-28T10:19:26;12.55;;;7.18;;
67162;SDS011;54092;53.088;8.850;2023-07-28T10:21:58;13.00;;;7.30;;
67162;SDS011;54092;53.088;8.850;2023-07-28T10:29:56;12.65;;;6.68;;
67162;SDS011;54092;53.088;8.850;2023-07-28T10:32:27;10.95;;;7.32;;
67162;SDS011;54092;53.088;8.850;2023-07-28T10:35:00;12.70;;;7.28;;
67162;SDS011;54092;53.088;8.850;2023-07-28T10:37:26;14.55;;;6.13;;
67162;SDS011;54092;53.088;8.850;2023-07-28T10:42:49;13.30;;;7.43;;
67162;SDS011;54092;53.088;8.850;2023-07-28T10:45:15;11.93;;;7.13;;
67162;SDS011;54092;53.088;8.850;2023-07-28T10:47:41;13.98;;;7.90;;
67162;SDS011;54092;53.088;8.850;2023-07-28T10:50:09;16.55;;;7.97;;
67162;SDS011;54092;53.088;8.850;2023-07-28T10:52:39;15.60;;;9.40;;
67162;SDS011;54092;53.088;8.850;2023-07-28T10:55:11;15.93;;;8.13;;
67162;SDS011;54092;53.088;8.850;2023-07-28T10:57:45;12.65;;;7.57;;
67162;SDS011;54092;53.088;8.850;2023-07-28T11:00:13;13.80;;;7.75;;
67162;SDS011;54092;53.088;8.850;2023-07-28T11:02:44;14.27;;;7.30;;
67162;SDS011;54092;53.088;8.850;2023-07-28T11:05:11;12.25;;;7.25;;
67162;SDS011;54092;53.088;8.850;2023-07-28T11:07:40;12.77;;;7.00;;
67162;SDS011;54092;53.088;8.850;2023-07-28T11:10:09;11.43;;;5.82;;
67162;SDS011;54092;53.088;8.850;2023-07-28T11:12:36;9.95;;;6.53;;
67162;SDS011;54092;53.088;8.850;2023-07-28T11:15:06;9.18;;;5.63;;
67162;SDS011;54092;53.088;8.850;2023-07-28T11:17:35;10.82;;;4.72;;
67162;SDS011;54092;53.088;8.850;2023-07-28T11:20:02;8.35;;;4.43;;
67162;SDS011;54092;53.088;8.850;2023-07-28T11:22:28;6.60;;;3.88;;
67162;SDS011;54092;53.088;8.850;2023-07-28T11:24:54;6.97;;;4.10;;
67162;SDS011;54092;53.088;8.850;2023-07-28T11:27:19;6.38;;;3.67;;
67162;SDS011;54092;53.088;8.850;2023-07-28T11:29:45;6.85;;;3.95;;
67162;SDS011;54092;53.088;8.850;2023-07-28T11:32:11;6.40;;;3.80;;
67162;SDS011;54092;53.088;8.850;2023-07-28T11:34:40;6.80;;;3.42;;
67162;SDS011;54092;53.088;8.850;2023-07-28T11:37:08;6.07;;;3.70;;
67162;SDS011;54092;53.088;8.850;2023-07-28T11:39:34;5.00;;;3.13;;
67162;SDS011;54092;53.088;8.850;2023-07-28T11:42:00;6.20;;;4.10;;
67162;SDS011;54092;53.088;8.850;2023-07-28T11:44:26;6.63;;;4.00;;
67162;SDS011;54092;53.088;8.850;2023-07-28T11:46:52;6.65;;;3.88;;
67162;SDS011;54092;53.088;8.850;2023-07-28T11:49:20;6.43;;;3.80;;
67162;SDS011;54092;53.088;8.850;2023-07-28T11:51:50;7.28;;;3.60;;
67162;SDS011;54092;53.088;8.850;2023-07-28T11:54:17;8.68;;;4.00;;
67162;SDS011;54092;53.088;8.850;2023-07-28T11:56:47;6.65;;;3.50;;
67162;SDS011;54092;53.088;8.850;2023-07-28T11:59:18;5.75;;;3.78;;
67162;SDS011;54092;53.088;8.850;2023-07-28T12:01:51;7.82;;;3.72;;
67162;SDS011;54092;53.088;8.850;2023-07-28T12:04:27;8.80;;;4.05;;
67162;SDS011;54092;53.088;8.850;2023-07-28T12:07:09;5.93;;;3.75;;
67162;SDS011;54092;53.088;8.850;2023-07-28T12:12:11;9.98;;;4.15;;
67162;SDS011;54092;53.088;8.850;2023-07-28T12:14:38;7.10;;;3.92;;
67162;SDS011;54092;53.088;8.850;2023-07-28T12:17:11;8.13;;;4.28;;
67162;SDS011;54092;53.088;8.850;2023-07-28T12:25:05;8.30;;;4.28;;
67162;SDS011;54092;53.088;8.850;2023-07-28T12:27:59;8.75;;;4.57;;
67162;SDS011;54092;53.088;8.850;2023-07-28T12:30:25;10.88;;;4.68;;
67162;SDS011;54092;53.088;8.850;2023-07-28T12:32:50;5.60;;;3.53;;
67162;SDS011;54092;53.088;8.850;2023-07-28T12:35:16;7.13;;;3.78;;
67162;SDS011;54092;53.088;8.850;2023-07-28T12:37:41;7.72;;;3.85;;
67162;SDS011;54092;53.088;8.850;2023-07-28T12:40:07;7.20;;;3.38;;
67162;SDS011;54092;53.088;8.850;2023-07-28T12:42:33;6.10;;;3.47;;
67162;SDS011;54092;53.088;8.850;2023-07-28T12:44:59;4.90;;;3.35;;
67162;SDS011;54092;53.088;8.850;2023-07-28T12:47:25;6.25;;;3.53;;
67162;SDS011;54092;53.088;8.850;2023-07-28T12:49:50;6.10;;;3.83;;
67162;SDS011;54092;53.088;8.850;2023-07-28T12:52:16;6.25;;;3.70;;
67162;SDS011;54092;53.088;8.850;2023-07-28T12:54:41;8.13;;;3.67;;
67162;SDS011;54092;53.088;8.850;2023-07-28T12:57:10;7.10;;;3.77;;
67162;SDS011;54092;53.088;8.850;2023-07-28T12:59:37;6.35;;;3.95;;
67162;SDS011;54092;53.088;8.850;2023-07-28T13:02:03;6.43;;;3.90;;
67162;SDS011;54092;53.088;8.850;2023-07-28T13:04:28;7.30;;;3.97;;
67162;SDS011;54092;53.088;8.850;2023-07-28T13:06:54;5.97;;;4.13;;
67162;SDS011;54092;53.088;8.850;2023-07-28T13:09:20;7.47;;;3.72;;
67162;SDS011;54092;53.088;8.850;2023-07-28T13:11:45;6.72;;;3.60;;
67162;SDS011;54092;53.088;8.850;2023-07-28T13:14:11;6.70;;;3.15;;
67162;SDS011;54092;53.088;8.850;2023-07-28T13:16:36;7.75;;;3.65;;
67162;SDS011;54092;53.088;8.850;2023-07-28T13:19:03;8.43;;;3.60;;
67162;SDS011;54092;53.088;8.850;2023-07-28T13:21:29;6.93;;;3.72;;
67162;SDS011;54092;53.088;8.850;2023-07-28T13:23:54;8.38;;;4.30;;
67162;SDS011;54092;53.088;8.850;2023-07-28T13:26:20;5.97;;;3.60;;
67162;SDS011;54092;53.088;8.850;2023-07-28T13:28:45;6.53;;;3.30;;
67162;SDS011;54092;53.088;8.850;2023-07-28T13:31:15;4.55;;;3.00;;
67162;SDS011;54092;53.088;8.850;2023-07-28T13:33:42;5.60;;;3.28;;
67162;SDS011;54092;53.088;8.850;2023-07-28T13:36:08;6.18;;;3.42;;
67162;SDS011;54092;53.088;8.850;2023-07-28T13:38:33;6.15;;;3.50;;
67162;SDS011;54092;53.088;8.850;2023-07-28T13:41:00;7.25;;;3.50;;
67162;SDS011;54092;53.088;8.850;2023-07-28T13:43:25;4.78;;;3.15;;
67162;SDS011;54092;53.088;8.850;2023-07-28T13:45:51;6.93;;;3.33;;
67162;SDS011;54092;53.088;8.850;2023-07-28T13:48:17;5.68;;;3.20;;
67162;SDS011;54092;53.088;8.850;2023-07-28T13:50:42;6.80;;;3.50;;
67162;SDS011;54092;53.088;8.850;2023-07-28T13:53:08;5.85;;;3.38;;
67162;SDS011;54092;53.088;8.850;2023-07-28T13:55:34;4.95;;;3.22;;
67162;SDS011;54092;53.088;8.850;2023-07-28T13:58:00;6.95;;;3.55;;
67162;SDS011;54092;53.088;8.850;2023-07-28T14:00:25;4.90;;;3.20;;
67162;SDS011;54092;53.088;8.850;2023-07-28T14:02:51;9.18;;;3.78;;
67162;SDS011;54092;53.088;8.850;2023-07-28T14:05:17;6.43;;;3.40;;
67162;SDS011;54092;53.088;8.850;2023-07-28T14:07:44;9.23;;;3.75;;
67162;SDS011;54092;53.088;8.850;2023-07-28T14:10:09;5.00;;;3.03;;
67162;SDS011;54092;53.088;8.850;2023-07-28T14:12:35;5.20;;;3.38;;
67162;SDS011;54092;53.088;8.850;2023-07-28T14:15:00;6.50;;;3.53;;
67162;SDS011;54092;53.088;8.850;2023-07-28T14:17:26;4.95;;;3.15;;
67162;SDS011;54092;53.088;8.850;2023-07-28T14:19:52;6.97;;;3.00;;
67162;SDS011;54092;53.088;8.850;2023-07-28T14:22:17;5.03;;;3.25;;
67162;SDS011;54092;53.088;8.850;2023-07-28T14:24:43;5.68;;;3.20;;
67162;SDS011;54092;53.088;8.850;2023-07-28T14:27:08;4.90;;;3.00;;
67162;SDS011;54092;53.088;8.850;2023-07-28T14:29:34;6.13;;;3.05;;
67162;SDS011;54092;53.088;8.850;2023-07-28T14:31:59;5.00;;;3.13;;
67162;SDS011;54092;53.088;8.850;2023-07-28T14:34:25;5.20;;;3.20;;
67162;SDS011;54092;53.088;8.850;2023-07-28T14:36:50;6.43;;;3.22;;
67162;SDS011;54092;53.088;8.850;2023-07-28T14:39:16;4.72;;;2.67;;
67162;SDS011;54092;53.088;8.850;2023-07-28T14:41:42;4.97;;;2.97;;
67162;SDS011;54092;53.088;8.850;2023-07-28T14:44:08;5.63;;;3.25;;
67162;SDS011;54092;53.088;8.850;2023-07-28T14:46:33;7.50;;;3.45;;
67162;SDS011;54092;53.088;8.850;2023-07-28T14:48:59;5.30;;;3.30;;
67162;SDS011;54092;53.088;8.850;2023-07-28T14:51:24;5.90;;;3.47;;